Alyeska Resort
Max's Hourly Weather Roundup
ALYESKA_MAX 9/3/2015
Click Here for Graph

        DATE  TIME   Air  Wind  Wind  Wind  BATT   Rel
                    Temp   Spd   Dir  Gust  Volt  Hum%
                      F   MPH   AVG   MPH   AVG   AVG

    9/2/2015 24:00    47     2   111     7 12.92    62
    9/2/2015 23:00    47     3   165     7 12.98    64
    9/2/2015 22:00    48     1   177     3 13.09    64
    9/2/2015 21:00    49     3    93     5 13.30    62
    9/2/2015 20:00    50     2   163     5 13.98    60
    9/2/2015 19:00    52     2   148     6 13.91    61
    9/2/2015 18:00    55     3   202     8 13.78    60
    9/2/2015 17:00    54     3   234    11 13.70    56
    9/2/2015 16:00    55     4   210    10 13.62    54
    9/2/2015 15:00    53     6   176    12 13.61    54
    9/2/2015 14:00    51     6   174    10 13.60    64
    9/2/2015 13:00    49     3   178     7 13.59    67
    9/2/2015 12:00    47     3   173     7 13.58    66
    9/2/2015 11:00    46     3   159     5 13.60    64
    9/2/2015 10:00    45     3   155     4 13.56    60
    9/2/2015 09:00    43     3   168     5 13.61    64
    9/2/2015 08:00    41     1   207     4 12.93    66
    9/2/2015 07:00    41     3   184     5 12.73    68
    9/2/2015 06:00    41     3   176     6 12.75    67
    9/2/2015 05:00    41     5   168     8 12.77    68
    9/2/2015 04:00    43     2   186     4 12.80    61
    9/2/2015 03:00    43     2   212     5 12.82    59
    9/2/2015 02:00    43     4   142     7 12.85    61
    9/2/2015 01:00    44     3   247     7 12.89    56


Click Here for Graph